Airfield :
LOGIN :

Register | Disclaimer

   EN    FR    IT 

 










Legend :    VFR   Marginal VFR   IFR   Intensive IFR   Very Intensive IFR
Visi :
Ceiling :
>= 8 km
>= 3000ft
5 to 8 km
1000 to 3000 ft
1500m to 5 km
500 to 1000 ft
800 to 1500m
200 to 500 ft
< 800m
< 200 ft
Symbols :   Thunderstorms  Fog  Heavy snow  Heavy precipitations  Wind > 20 kt
SIGMETs :     Misc.  Thunderstorms  Icing  Turbulence  Mountain Waves  Volcanic Ashes







- Airport Elevation : 13 ft
- IATA code : LYX
- Download approach charts


EGMD - Lydd

CURRENT METAR :
  • 191950Z AUTO 18015KT 9999 FEW018/// 17/15 Q1002

EXPIRED METARs :
  • 191920Z AUTO 18013KT 9999 FEW026/// SCT044/// 17/16 Q1002
  • 191850Z AUTO 17014KT 9999 FEW029/// 17/15 Q1003
  • 191820Z AUTO 18014KT 9999 FEW026/// SCT033/// BKN043/// 17/15 Q1003
  • 191750Z AUTO 18011KT 9999 SCT029/// BKN034/// 17/16 Q1003
  • 191720Z 18011KT 9999 SCT029 BKN034 17/16 Q1003

TAF TAF EGMD
Valid from the 19 at 18:00 until the 20 at 03:00 UTC


191700Z 1918/2003 18014KT 9999 FEW025
BECMG 1918/1921 19024KT
TEMPO 1918/2003 6000 -RADZ BKN014
PROB40
TEMPO 1920/1924 19027G37KT 3000 +RA
BECMG 2000/2003 22022G35KT
ATIS : +44 1797 322 422
No reported NOTAMs for that airfield.
2 SIGMETs reported for the London FIR (EGTT) :
 
Severe turbulence
EGTT SIGMET 03 VALID 192020/192330 EGRR
EGTT LONDON FIR SEV TURB FCST WI N5149 W00608 - N5024 W00401 - N5034 W00229 - N5000 W00200 - N4919 W00538 - N5053 W00720 - N5149 W00608 SFC/FL060 MOV E 20KT NC=
Severe turbulence
EGTT SIGMET 02 VALID 191720/192020 EGRR
EGTT LONDON FIR SEV TURB FCST WI N5210 W00549 - N4946 W00315 - N4909 W00623 - N5100 W00800 - N5210 W00549 SFC/FL060 MOV E 20KT WKN=



MET'MAP, your aeronautical weather chart ! - Copyright ORBIFLY December 2007 - Disclaimer

ORBIFLY MET'MAP TEAM :

Programming & Development : Alexandra Zaïnal
Concept & Development : Baudouin d'Aumeries
Co-Development & Prog : Marc-Olivier Méhu
Technical & hardware support : Manuel Goepfert

Contact : metmap@orbifly.com




SOURCES & CREDITS :

   NOAA